createdAt,value
2023-05-07T00:02:20.219Z,3.47
2023-05-07T00:04:47.865Z,3.40
2023-05-07T00:07:15.690Z,3.30
2023-05-07T00:09:45.118Z,3.40
2023-05-07T00:12:12.707Z,3.90
2023-05-07T00:14:40.326Z,3.58
2023-05-07T00:17:07.880Z,3.20
2023-05-07T00:19:35.544Z,3.47
2023-05-07T00:22:03.074Z,3.20
2023-05-07T00:24:30.823Z,3.87
2023-05-07T00:27:00.060Z,3.65
2023-05-07T00:29:27.695Z,3.90
2023-05-07T00:31:55.971Z,3.85
2023-05-07T00:34:23.747Z,3.30
2023-05-07T00:36:51.286Z,4.03
2023-05-07T00:39:18.852Z,3.70
2023-05-07T00:41:47.004Z,4.00
2023-05-07T00:44:16.088Z,3.45
2023-05-07T00:46:43.685Z,3.70
2023-05-07T00:49:11.217Z,4.13
2023-05-07T00:51:39.048Z,3.30
2023-05-07T00:54:06.981Z,3.50
2023-05-07T00:56:34.643Z,3.92
2023-05-07T00:59:03.185Z,3.60
2023-05-07T01:01:33.401Z,4.13
2023-05-07T01:04:01.038Z,4.00
2023-05-07T01:06:30.255Z,3.70
2023-05-07T01:08:58.547Z,3.72
2023-05-07T01:11:26.561Z,4.07
2023-05-07T01:13:54.532Z,4.60
2023-05-07T01:16:22.492Z,4.53
2023-05-07T01:18:51.808Z,4.10
2023-05-07T01:21:19.851Z,4.50
2023-05-07T01:23:49.231Z,4.35
2023-05-07T01:26:17.403Z,4.57
2023-05-07T01:28:44.942Z,4.15
2023-05-07T01:31:14.158Z,3.92
2023-05-07T01:33:42.856Z,4.53
2023-05-07T01:36:11.271Z,4.25
2023-05-07T01:38:39.705Z,4.13
2023-05-07T01:41:09.264Z,3.83
2023-05-07T01:43:36.909Z,3.90
2023-05-07T01:46:05.203Z,4.90
2023-05-07T01:48:32.990Z,4.07
2023-05-07T01:51:00.835Z,4.13
2023-05-07T01:53:29.083Z,5.03
2023-05-07T01:55:56.639Z,4.88
2023-05-07T01:58:25.575Z,5.05
2023-05-07T02:00:53.128Z,5.35
2023-05-07T02:03:20.799Z,5.20
2023-05-07T02:05:48.418Z,4.68
2023-05-07T02:08:15.956Z,5.55
2023-05-07T02:10:43.515Z,5.30
2023-05-07T02:13:11.203Z,4.82
2023-05-07T02:15:40.197Z,4.80
2023-05-07T02:18:08.836Z,4.53
2023-05-07T02:20:36.452Z,3.72
2023-05-07T02:23:04.104Z,5.20
2023-05-07T02:25:31.682Z,5.18
2023-05-07T02:27:59.380Z,4.90
2023-05-07T02:30:27.023Z,5.13
2023-05-07T02:32:56.030Z,4.88
2023-05-07T02:35:23.638Z,4.53
2023-05-07T02:37:51.197Z,5.00
2023-05-07T02:40:18.754Z,4.57
2023-05-07T02:42:46.299Z,4.85
2023-05-07T02:45:13.850Z,4.35
2023-05-07T02:47:41.589Z,4.22
2023-05-07T02:50:11.566Z,4.22
2023-05-07T02:52:39.273Z,4.27
2023-05-07T02:55:07.918Z,4.57
2023-05-07T02:57:35.472Z,4.07
2023-05-07T03:00:12.125Z,4.78
2023-05-07T03:02:39.890Z,4.90
2023-05-07T03:05:08.202Z,4.50
2023-05-07T03:07:37.481Z,4.90
2023-05-07T03:10:05.501Z,4.38
2023-05-07T03:12:33.306Z,4.97
2023-05-07T03:15:00.876Z,4.25
2023-05-07T03:17:28.461Z,4.60
2023-05-07T03:19:56.072Z,5.32
2023-05-07T03:22:23.670Z,4.78
2023-05-07T03:24:52.583Z,4.72
2023-05-07T03:27:20.120Z,4.35
2023-05-07T03:29:47.691Z,5.13
2023-05-07T03:32:15.530Z,5.15
2023-05-07T03:34:43.130Z,5.90
2023-05-07T03:37:10.655Z,4.75
2023-05-07T03:39:38.262Z,5.80
2023-05-07T03:42:07.269Z,4.97
2023-05-07T03:44:34.824Z,5.43
2023-05-07T03:47:02.377Z,5.45
2023-05-07T03:49:29.945Z,5.57
2023-05-07T03:51:57.874Z,5.20
2023-05-07T03:54:25.401Z,5.07
2023-05-07T03:56:52.995Z,4.88
2023-05-07T03:59:21.929Z,5.00
2023-05-07T04:01:49.691Z,5.65
2023-05-07T04:04:17.679Z,5.15
2023-05-07T04:06:45.355Z,5.07
2023-05-07T04:09:12.935Z,5.15
2023-05-07T04:11:41.228Z,5.30
2023-05-07T04:14:08.872Z,5.20
2023-05-07T04:16:38.114Z,5.28
2023-05-07T04:19:06.725Z,4.60
2023-05-07T04:21:34.264Z,5.60
2023-05-07T04:24:01.833Z,4.93
2023-05-07T04:26:29.430Z,5.25
2023-05-07T04:28:57.727Z,5.75
2023-05-07T04:31:25.271Z,5.20
2023-05-07T04:33:54.231Z,6.32
2023-05-07T04:36:22.417Z,4.88
2023-05-07T04:38:49.996Z,5.68
2023-05-07T04:41:17.710Z,5.05
2023-05-07T04:43:45.687Z,5.17
2023-05-07T04:46:13.306Z,5.40
2023-05-07T04:48:40.953Z,5.45
2023-05-07T04:51:09.874Z,5.20
2023-05-07T04:53:37.402Z,5.18
2023-05-07T04:56:05.171Z,5.03
2023-05-07T04:58:33.040Z,5.55
2023-05-07T05:01:01.365Z,5.30
2023-05-07T05:03:29.181Z,4.70
2023-05-07T05:05:58.027Z,5.72
2023-05-07T05:08:27.002Z,4.27
2023-05-07T05:10:54.532Z,5.90
2023-05-07T05:13:22.409Z,5.75
2023-05-07T05:15:50.269Z,4.82
2023-05-07T05:18:17.910Z,5.25
2023-05-07T05:20:45.620Z,4.97
2023-05-07T05:23:13.244Z,5.63
2023-05-07T05:25:42.288Z,5.25
2023-05-07T05:28:09.825Z,5.32
2023-05-07T05:30:37.454Z,4.65
2023-05-07T05:33:05.135Z,5.37
2023-05-07T05:35:32.773Z,5.03
2023-05-07T05:38:00.340Z,4.68
2023-05-07T05:40:27.900Z,5.03
2023-05-07T05:42:57.017Z,4.93
2023-05-07T05:45:24.569Z,5.17
2023-05-07T05:47:52.412Z,4.05
2023-05-07T05:50:20.160Z,4.30
2023-05-07T05:52:47.681Z,4.65
2023-05-07T05:55:15.249Z,4.05
2023-05-07T05:57:42.853Z,4.33
2023-05-07T06:00:12.772Z,3.90
2023-05-07T06:02:40.749Z,4.60
2023-05-07T06:05:08.803Z,3.80
2023-05-07T06:07:36.668Z,4.07
2023-05-07T06:10:13.745Z,3.87
2023-05-07T06:12:41.652Z,4.03
2023-05-07T06:15:09.547Z,4.25
2023-05-07T06:17:38.686Z,4.30
2023-05-07T06:20:06.894Z,4.28
2023-05-07T06:22:34.503Z,4.33
2023-05-07T06:25:02.114Z,3.78
2023-05-07T06:27:30.090Z,3.97
2023-05-07T06:29:57.614Z,4.22
2023-05-07T06:32:25.241Z,4.25
2023-05-07T06:34:54.250Z,4.23
2023-05-07T06:37:22.015Z,4.18
2023-05-07T06:39:49.597Z,4.20
2023-05-07T06:42:17.321Z,4.15
2023-05-07T06:44:44.878Z,4.10
2023-05-07T06:47:14.381Z,5.07
2023-05-07T06:49:43.338Z,4.18
2023-05-07T06:52:12.271Z,4.47
2023-05-07T06:54:39.901Z,4.50
2023-05-07T06:57:07.503Z,4.38
2023-05-07T06:59:35.118Z,4.47
2023-05-07T07:02:02.880Z,4.50
2023-05-07T07:04:31.101Z,4.60
2023-05-07T07:06:58.756Z,4.38
2023-05-07T07:09:27.753Z,4.00
2023-05-07T07:11:55.554Z,4.27
2023-05-07T07:14:23.159Z,4.00
2023-05-07T07:16:50.949Z,4.60
2023-05-07T07:19:18.566Z,4.43
2023-05-07T07:21:46.110Z,4.38
2023-05-07T07:24:13.711Z,4.33
2023-05-07T07:26:43.721Z,4.30
2023-05-07T07:29:11.273Z,4.40
2023-05-07T07:31:39.008Z,4.55
2023-05-07T07:34:06.666Z,4.90
2023-05-07T07:36:42.833Z,4.40
2023-05-07T07:39:13.500Z,4.15
2023-05-07T07:41:42.550Z,4.38
2023-05-07T07:44:16.136Z,4.15
2023-05-07T07:46:44.243Z,4.18
2023-05-07T07:49:11.783Z,4.53
2023-05-07T07:51:39.375Z,4.15
2023-05-07T07:54:07.116Z,4.03
2023-05-07T07:56:35.364Z,4.45
2023-05-07T07:59:04.548Z,3.90
2023-05-07T08:01:32.547Z,4.70
2023-05-07T08:04:00.819Z,4.28
2023-05-07T08:06:28.608Z,4.40
2023-05-07T08:08:56.296Z,4.82
2023-05-07T08:11:23.949Z,4.38
2023-05-07T08:13:51.681Z,4.47
2023-05-07T08:16:22.228Z,4.55
2023-05-07T08:18:49.921Z,5.18
2023-05-07T08:21:17.455Z,4.60
2023-05-07T08:23:45.022Z,4.43
2023-05-07T08:26:12.593Z,4.70
2023-05-07T08:28:40.560Z,4.80
2023-05-07T08:31:08.197Z,7.30
2023-05-07T08:33:37.130Z,7.35
2023-05-07T08:36:05.022Z,5.53
2023-05-07T08:38:36.195Z,4.60
2023-05-07T08:41:08.562Z,4.70
2023-05-07T08:43:38.201Z,4.78
2023-05-07T08:46:07.499Z,5.30
2023-05-07T08:48:38.960Z,4.93
2023-05-07T08:51:07.224Z,5.00
2023-05-07T08:53:35.243Z,5.40
2023-05-07T08:56:03.275Z,6.03
2023-05-07T08:58:30.867Z,4.88
2023-05-07T09:00:58.614Z,4.82
2023-05-07T09:03:26.279Z,5.50
2023-05-07T09:05:55.270Z,5.28
2023-05-07T09:08:26.353Z,5.47
2023-05-07T09:10:54.460Z,5.05
2023-05-07T09:13:22.136Z,5.80
2023-05-07T09:15:49.804Z,5.80
2023-05-07T09:18:17.354Z,6.20
2023-05-07T09:20:44.928Z,5.78
2023-05-07T09:23:13.812Z,5.57
2023-05-07T09:25:41.466Z,5.60
2023-05-07T09:28:11.071Z,5.83
2023-05-07T09:30:38.676Z,5.38
2023-05-07T09:33:06.262Z,4.97
2023-05-07T09:35:33.847Z,5.40
2023-05-07T09:38:04.152Z,5.05
2023-05-07T09:40:33.624Z,5.20
2023-05-07T09:43:11.315Z,5.18
2023-05-07T09:45:39.110Z,5.80
2023-05-07T09:48:07.974Z,5.80
2023-05-07T09:50:38.380Z,5.43
2023-05-07T09:53:06.460Z,5.87
2023-05-07T09:55:35.617Z,5.57
2023-05-07T09:58:03.862Z,5.60
2023-05-07T10:00:32.199Z,5.43
2023-05-07T10:03:00.421Z,5.93
2023-05-07T10:05:28.366Z,5.97
2023-05-07T10:07:56.490Z,5.20
2023-05-07T10:10:24.295Z,5.82
2023-05-07T10:12:53.363Z,5.78
2023-05-07T10:15:21.082Z,5.10
2023-05-07T10:17:48.805Z,6.10
2023-05-07T10:20:16.433Z,5.93
2023-05-07T10:22:45.840Z,6.72
2023-05-07T10:25:16.562Z,5.70
2023-05-07T10:27:45.297Z,5.30
2023-05-07T10:30:20.899Z,5.50
2023-05-07T10:32:51.753Z,6.10
2023-05-07T10:35:21.670Z,5.90
2023-05-07T10:37:50.246Z,4.90
2023-05-07T10:40:18.732Z,5.30
2023-05-07T10:42:55.758Z,5.47
2023-05-07T10:45:25.545Z,5.68
2023-05-07T10:50:43.641Z,5.38
2023-05-07T10:53:26.942Z,5.80
2023-05-07T10:56:14.832Z,6.13
2023-05-07T10:58:42.389Z,5.53
2023-05-07T11:01:13.600Z,5.28
2023-05-07T11:04:07.801Z,5.72
2023-05-07T11:06:35.605Z,5.90
2023-05-07T11:09:03.177Z,5.13
2023-05-07T11:11:47.787Z,5.50
2023-05-07T11:14:16.145Z,5.07
2023-05-07T11:16:45.595Z,5.60
2023-05-07T11:19:13.261Z,5.50
2023-05-07T11:21:41.692Z,5.33
2023-05-07T11:24:09.777Z,5.18
2023-05-07T11:26:45.702Z,5.80
2023-05-07T11:29:13.666Z,5.53
2023-05-07T11:31:41.597Z,5.45
2023-05-07T11:34:10.991Z,5.13
2023-05-07T11:36:43.836Z,5.45
2023-05-07T11:39:25.451Z,4.80
2023-05-07T11:41:53.719Z,4.88
2023-05-07T11:44:21.402Z,5.40
2023-05-07T11:46:48.964Z,4.90
2023-05-07T11:49:18.899Z,5.28
2023-05-07T11:51:47.646Z,5.20
2023-05-07T11:54:17.473Z,4.68
2023-05-07T11:56:46.032Z,5.00
2023-05-07T11:59:13.615Z,5.10
2023-05-07T12:01:41.180Z,5.20
2023-05-07T12:04:08.881Z,5.00
2023-05-07T12:06:40.291Z,4.95
2023-05-07T12:09:12.429Z,5.45
2023-05-07T12:11:41.736Z,4.83
2023-05-07T12:14:11.564Z,5.13
2023-05-07T12:16:40.962Z,5.30
2023-05-07T12:19:09.910Z,4.88
2023-05-07T12:21:38.863Z,4.65
2023-05-07T12:24:06.751Z,4.50
2023-05-07T12:26:34.338Z,4.45
2023-05-07T12:29:01.974Z,4.90
2023-05-07T12:31:29.742Z,4.32
2023-05-07T12:33:57.352Z,4.45
2023-05-07T12:36:25.766Z,5.33
2023-05-07T12:38:56.616Z,4.70
2023-05-07T12:41:27.612Z,4.47
2023-05-07T12:43:58.292Z,4.82
2023-05-07T12:46:25.917Z,4.40
2023-05-07T12:48:54.399Z,4.70
2023-05-07T12:51:22.001Z,4.88
2023-05-07T12:53:49.556Z,5.03
2023-05-07T12:56:18.810Z,4.57
2023-05-07T12:58:46.388Z,4.65
2023-05-07T13:01:16.606Z,4.93
2023-05-07T13:03:50.170Z,4.78
2023-05-07T13:06:17.853Z,4.72
2023-05-07T13:08:45.486Z,4.72
2023-05-07T13:11:13.584Z,4.95
2023-05-07T13:13:42.971Z,5.27
2023-05-07T13:16:11.486Z,5.60
2023-05-07T13:18:40.070Z,5.47
2023-05-07T13:21:07.941Z,4.47
2023-05-07T13:23:36.065Z,5.10
2023-05-07T13:26:06.396Z,4.77
2023-05-07T13:28:39.168Z,4.78
2023-05-07T13:31:08.517Z,4.75
2023-05-07T13:33:36.363Z,5.07
2023-05-07T13:36:05.696Z,5.03
2023-05-07T13:38:33.239Z,4.73
2023-05-07T13:41:00.829Z,4.68
2023-05-07T13:43:28.421Z,4.60
2023-05-07T13:45:56.029Z,4.80
2023-05-07T13:48:24.949Z,4.57
2023-05-07T13:50:52.621Z,4.70
2023-05-07T13:53:20.272Z,4.88
2023-05-07T13:55:47.822Z,4.90
2023-05-07T13:58:15.458Z,4.70
2023-05-07T14:00:43.053Z,4.55
2023-05-07T14:03:11.443Z,4.90
2023-05-07T14:05:40.562Z,4.93
2023-05-07T14:08:08.904Z,4.50
2023-05-07T14:10:36.546Z,4.45
2023-05-07T14:13:05.403Z,4.65
2023-05-07T14:15:33.374Z,5.27
2023-05-07T14:18:01.105Z,4.90
2023-05-07T14:20:28.681Z,4.15
2023-05-07T14:22:58.246Z,4.40
2023-05-07T14:25:25.913Z,4.65
2023-05-07T14:27:53.480Z,4.43
2023-05-07T14:30:21.005Z,4.22
2023-05-07T14:32:48.611Z,3.92
2023-05-07T14:35:16.237Z,4.25
2023-05-07T14:37:43.762Z,4.13
2023-05-07T14:40:13.467Z,4.63
2023-05-07T14:42:41.224Z,4.20
2023-05-07T14:45:09.660Z,4.22
2023-05-07T14:47:37.430Z,4.13
2023-05-07T14:50:05.264Z,4.28
2023-05-07T14:52:32.852Z,3.90
2023-05-07T14:55:00.428Z,4.05
2023-05-07T14:57:32.828Z,3.55
2023-05-07T15:00:00.673Z,3.90
2023-05-07T15:02:28.307Z,3.95
2023-05-07T15:04:55.938Z,4.30
2023-05-07T15:07:23.511Z,4.50
2023-05-07T15:09:52.015Z,4.07
2023-05-07T15:12:19.564Z,4.00
2023-05-07T15:14:48.486Z,3.70
2023-05-07T15:17:16.750Z,3.90
2023-05-07T15:19:44.294Z,3.88
2023-05-07T15:22:11.850Z,3.97
2023-05-07T15:24:39.405Z,3.83
2023-05-07T15:27:06.956Z,3.70
2023-05-07T15:29:34.546Z,3.53
2023-05-07T15:32:03.474Z,4.00
2023-05-07T15:34:31.998Z,3.53
2023-05-07T15:36:59.514Z,3.80
2023-05-07T15:39:27.329Z,3.65
2023-05-07T15:41:54.884Z,3.43
2023-05-07T15:44:22.451Z,3.95
2023-05-07T15:46:50.003Z,3.90
2023-05-07T15:49:18.940Z,3.75
2023-05-07T15:51:46.528Z,3.72
2023-05-07T15:54:14.082Z,3.90
2023-05-07T15:56:41.628Z,3.63
2023-05-07T15:59:10.194Z,3.63
2023-05-07T16:01:37.840Z,3.63
2023-05-07T16:04:05.606Z,3.67
2023-05-07T16:06:34.637Z,3.70
2023-05-07T16:09:02.361Z,3.78
2023-05-07T16:11:30.764Z,4.47
2023-05-07T16:13:59.682Z,3.72
2023-05-07T16:16:30.037Z,3.38
2023-05-07T16:18:57.806Z,3.70
2023-05-07T16:21:25.367Z,3.60
2023-05-07T16:23:54.554Z,3.30
2023-05-07T16:26:22.177Z,3.60
2023-05-07T16:28:49.787Z,3.90
2023-05-07T16:31:17.402Z,3.43
2023-05-07T16:33:45.071Z,3.25
2023-05-07T16:36:12.736Z,3.22
2023-05-07T16:38:40.296Z,3.40
2023-05-07T16:41:09.250Z,3.10
2023-05-07T16:43:36.825Z,3.00
2023-05-07T16:46:04.732Z,2.92
2023-05-07T16:48:32.335Z,3.20
2023-05-07T16:51:00.285Z,3.10
2023-05-07T16:53:27.875Z,2.95
2023-05-07T16:55:56.704Z,2.60
2023-05-07T16:58:27.256Z,3.00
2023-05-07T17:00:54.790Z,3.03
2023-05-07T17:03:22.542Z,2.90
2023-05-07T17:05:50.404Z,2.70
2023-05-07T17:08:18.016Z,3.00
2023-05-07T17:10:46.140Z,2.95
2023-05-07T17:13:14.073Z,2.85
2023-05-07T17:15:43.607Z,2.80
2023-05-07T17:18:11.305Z,2.88
2023-05-07T17:20:40.034Z,3.23
2023-05-07T17:23:07.663Z,3.33
2023-05-07T17:25:36.027Z,2.72
2023-05-07T17:28:03.591Z,3.45
2023-05-07T17:30:31.200Z,3.13
2023-05-07T17:33:09.366Z,3.00
2023-05-07T17:35:44.913Z,3.00
2023-05-07T17:38:12.518Z,2.90
2023-05-07T17:40:40.050Z,2.80
2023-05-07T17:43:07.641Z,2.83
2023-05-07T17:45:36.001Z,3.23
2023-05-07T17:48:05.732Z,3.17
2023-05-07T17:50:33.458Z,2.92
2023-05-07T17:53:02.019Z,3.30
2023-05-07T17:55:29.741Z,3.38
2023-05-07T17:57:57.590Z,3.10
2023-05-07T18:00:25.353Z,3.08
2023-05-07T18:02:52.950Z,3.22
2023-05-07T18:05:22.123Z,3.15
2023-05-07T18:07:49.719Z,3.60
2023-05-07T18:10:17.293Z,2.90
2023-05-07T18:12:44.884Z,3.20
2023-05-07T18:15:13.158Z,3.15
2023-05-07T18:17:41.223Z,3.40
2023-05-07T18:20:11.605Z,3.47
2023-05-07T18:22:40.850Z,3.27
2023-05-07T18:25:09.052Z,3.25
2023-05-07T18:27:36.678Z,3.20
2023-05-07T18:30:06.180Z,3.10
2023-05-07T18:32:33.807Z,2.80
2023-05-07T18:35:01.411Z,3.27
2023-05-07T18:37:28.929Z,2.80
2023-05-07T18:39:58.500Z,3.03
2023-05-07T18:42:26.308Z,3.38
2023-05-07T18:44:53.871Z,3.22
2023-05-07T18:47:21.432Z,2.97
2023-05-07T18:49:49.019Z,3.00
2023-05-07T18:52:17.087Z,3.15
2023-05-07T18:54:45.703Z,3.30
2023-05-07T18:57:14.996Z,3.28
2023-05-07T18:59:42.554Z,3.20
2023-05-07T19:02:10.143Z,3.28
2023-05-07T19:04:38.049Z,2.92
2023-05-07T19:07:06.188Z,2.92
2023-05-07T19:09:33.746Z,2.83
2023-05-07T19:12:02.418Z,3.20
2023-05-07T19:14:31.562Z,2.92
2023-05-07T19:16:59.153Z,3.20
2023-05-07T19:19:27.708Z,3.10
2023-05-07T19:21:55.255Z,2.80
2023-05-07T19:24:22.784Z,3.43
2023-05-07T19:26:50.317Z,2.80
2023-05-07T19:29:18.620Z,3.25
2023-05-07T19:31:48.101Z,2.83
2023-05-07T19:34:15.903Z,3.30
2023-05-07T19:36:43.451Z,3.03
2023-05-07T19:39:11.498Z,3.05
2023-05-07T19:41:39.105Z,2.72
2023-05-07T19:44:06.658Z,2.38
2023-05-07T19:46:34.256Z,2.80
2023-05-07T19:49:03.216Z,3.17
2023-05-07T19:51:32.544Z,3.30
2023-05-07T19:54:00.139Z,2.95
2023-05-07T19:56:27.729Z,2.90
2023-05-07T19:58:55.290Z,3.28
2023-05-07T20:01:22.964Z,3.10
2023-05-07T20:03:50.734Z,2.75
2023-05-07T20:06:19.799Z,2.80
2023-05-07T20:08:47.348Z,2.42
2023-05-07T20:11:14.889Z,2.45
2023-05-07T20:13:42.439Z,2.90
2023-05-07T20:16:10.125Z,2.97
2023-05-07T20:18:37.738Z,2.60
2023-05-07T20:21:05.630Z,2.80
2023-05-07T20:23:34.273Z,2.85
2023-05-07T20:26:03.204Z,2.90
2023-05-07T20:28:30.756Z,3.20
2023-05-07T20:30:58.374Z,2.78
2023-05-07T20:33:26.890Z,2.58
2023-05-07T20:35:54.636Z,2.92
2023-05-07T20:38:22.263Z,3.70
2023-05-07T20:40:49.903Z,3.17
2023-05-07T20:43:18.804Z,2.85
2023-05-07T20:45:46.431Z,2.85
2023-05-07T20:48:14.516Z,2.80
2023-05-07T20:50:42.124Z,3.00
2023-05-07T20:53:09.684Z,2.95
2023-05-07T20:55:37.242Z,2.80
2023-05-07T20:58:04.832Z,2.75
2023-05-07T21:00:33.981Z,2.50
2023-05-07T21:03:01.653Z,2.40
2023-05-07T21:05:29.242Z,2.90
2023-05-07T21:07:56.869Z,2.45
2023-05-07T21:10:24.482Z,2.63
2023-05-07T21:12:52.049Z,3.15
2023-05-07T21:15:19.588Z,2.93
2023-05-07T21:17:48.547Z,2.75
2023-05-07T21:20:16.384Z,3.15
2023-05-07T21:22:44.072Z,2.63
2023-05-07T21:25:13.255Z,3.03
2023-05-07T21:27:41.184Z,2.77
2023-05-07T21:30:09.471Z,2.70
2023-05-07T21:32:37.167Z,2.60
2023-05-07T21:35:06.785Z,2.65
2023-05-07T21:37:34.442Z,2.70
2023-05-07T21:40:01.960Z,2.40
2023-05-07T21:42:29.514Z,2.75
2023-05-07T21:44:57.078Z,2.58
2023-05-07T21:47:24.666Z,2.50
2023-05-07T21:49:52.267Z,2.63
2023-05-07T21:52:25.905Z,2.87
2023-05-07T21:54:53.756Z,3.10
2023-05-07T21:57:21.460Z,2.40
2023-05-07T21:59:49.059Z,2.78
2023-05-07T22:02:16.685Z,2.40
2023-05-07T22:04:44.441Z,2.50
2023-05-07T22:07:11.986Z,2.58
2023-05-07T22:09:40.896Z,2.50
2023-05-07T22:12:08.492Z,2.58
2023-05-07T22:14:36.329Z,2.67
2023-05-07T22:17:03.915Z,2.43
2023-05-07T22:19:31.456Z,2.45
2023-05-07T22:21:59.094Z,2.40
2023-05-07T22:24:26.631Z,2.60
2023-05-07T22:26:55.593Z,2.47
2023-05-07T22:29:24.030Z,2.60
2023-05-07T22:31:51.636Z,2.42
2023-05-07T22:34:19.241Z,2.40
2023-05-07T22:36:47.681Z,2.08
2023-05-07T22:39:15.223Z,2.58
2023-05-07T22:41:42.776Z,2.77
2023-05-07T22:44:11.684Z,2.67
2023-05-07T22:46:39.390Z,2.47
2023-05-07T22:49:07.148Z,2.72
2023-05-07T22:51:34.714Z,2.20
2023-05-07T22:54:02.277Z,2.17
2023-05-07T22:56:29.842Z,2.40
2023-05-07T22:58:57.406Z,2.50
2023-05-07T23:01:26.664Z,2.47
2023-05-07T23:03:54.257Z,2.28
2023-05-07T23:06:21.808Z,2.50
2023-05-07T23:08:49.467Z,2.40
2023-05-07T23:11:17.017Z,2.70
2023-05-07T23:13:44.622Z,2.40
2023-05-07T23:16:12.192Z,2.70
2023-05-07T23:18:41.262Z,2.53
2023-05-07T23:21:08.804Z,2.60
2023-05-07T23:23:36.405Z,2.40
2023-05-07T23:26:03.966Z,2.58
2023-05-07T23:28:31.555Z,2.50
2023-05-07T23:30:59.229Z,2.67
2023-05-07T23:33:26.839Z,2.60
2023-05-07T23:36:01.042Z,2.92
2023-05-07T23:38:28.590Z,2.75
2023-05-07T23:40:56.339Z,2.80
2023-05-07T23:43:23.905Z,2.20
2023-05-07T23:45:51.538Z,2.50
2023-05-07T23:48:19.147Z,2.63
2023-05-07T23:50:46.708Z,2.60
2023-05-07T23:53:15.731Z,2.92
2023-05-07T23:55:43.306Z,2.57
2023-05-07T23:58:10.939Z,2.80
